Time;durP1;ratioP1;P1;durP2;ratioP2;P2;SDS_P1;SDS_P2;PMS_P1;PMS_P2;Temp;Humidity;BMP_temperature;BMP_pressure;BME280_temperature;BME280_humidity;BME280_pressure;Samples;Min_cycle;Max_cycle;Signal;HPM_P1;HPM_P2
2023/10/17 00:01:54;;;;;;;8.40;5.20;;;;;;;6.02;100.00;100873.48;105883;1253;60471;-78
2023/10/17 00:06:51;;;;;;;7.80;5.80;;;;;;;5.92;100.00;100870.52;105847;1257;62490;-77
2023/10/17 00:09:22;;;;;;;8.60;6.10;;;;;;;5.87;100.00;100871.21;105854;1257;72374;-79
2023/10/17 00:14:24;;;;;;;6.80;5.40;;;;;;;5.77;100.00;100867.05;105790;1253;60454;-76
2023/10/17 00:16:55;;;;;;;8.60;5.70;;;;;;;5.73;100.00;100870.14;105669;1253;72564;-76
2023/10/17 00:19:31;;;;;;;6.90;5.10;;;;;;;5.70;100.00;100867.48;105779;1257;63772;-76
2023/10/17 00:22:05;;;;;;;6.90;5.80;;;;;;;5.66;100.00;100868.83;105882;1253;71275;-77
2023/10/17 00:24:33;;;;;;;7.00;5.30;;;;;;;5.65;100.00;100869.21;105709;1257;61212;-77
2023/10/17 00:27:02;;;;;;;8.70;5.10;;;;;;;5.64;100.00;100871.16;105739;1257;60377;-79
2023/10/17 00:29:30;;;;;;;7.80;5.00;;;;;;;5.63;100.00;100872.60;105932;1252;73856;-78
2023/10/17 00:31:57;;;;;;;7.70;5.10;;;;;;;5.62;100.00;100879.73;105601;1256;63940;-76
2023/10/17 00:34:25;;;;;;;5.50;4.50;;;;;;;5.60;100.00;100883.80;105826;1253;72626;-75
2023/10/17 00:37:00;;;;;;;6.40;4.60;;;;;;;5.58;100.00;100883.33;105803;1257;60547;-77
2023/10/17 00:39:30;;;;;;;5.00;4.50;;;;;;;5.56;100.00;100882.72;105742;1253;60516;-75
2023/10/17 00:44:38;;;;;;;7.70;4.70;;;;;;;5.53;100.00;100886.10;105726;1252;62688;-77
2023/10/17 00:47:09;;;;;;;8.20;5.30;;;;;;;5.52;100.00;100891.55;105914;1253;73819;-75
2023/10/17 00:49:44;;;;;;;9.80;5.80;;;;;;;5.50;100.00;100892.98;105803;1253;60547;-77
2023/10/17 00:52:25;;;;;;;6.20;4.80;;;;;;;5.49;100.00;100899.45;105789;1253;60466;-77
2023/10/17 00:54:55;;;;;;;6.10;4.90;;;;;;;5.47;100.00;100906.44;105694;1253;73876;-78
2023/10/17 00:57:26;;;;;;;5.40;4.20;;;;;;;5.45;100.00;100911.35;105753;1256;63867;-76
2023/10/17 01:00:00;;;;;;;6.10;4.40;;;;;;;5.44;100.00;100912.61;105708;1253;71557;-76
2023/10/17 01:02:44;;;;;;;9.80;6.50;;;;;;;5.42;100.00;100918.92;105753;1252;61139;-75
2023/10/17 01:05:12;;;;;;;10.70;6.80;;;;;;;5.39;100.00;100919.16;105760;1255;60547;-76
2023/10/17 01:07:42;;;;;;;11.20;9.30;;;;;;;5.37;100.00;100925.65;105690;1253;73957;-77
2023/10/17 01:10:16;;;;;;;13.70;9.70;;;;;;;5.35;100.00;100932.84;105838;1257;62883;-76
2023/10/17 01:12:54;;;;;;;16.00;9.30;;;;;;;5.33;100.00;100936.03;105688;1253;72650;-77
2023/10/17 01:15:22;;;;;;;15.60;9.50;;;;;;;5.31;100.00;100938.36;105863;1257;61138;-78
2023/10/17 01:17:54;;;;;;;15.20;10.70;;;;;;;5.29;100.00;100944.15;105761;1253;60499;-76
2023/10/17 01:20:21;;;;;;;15.50;10.00;;;;;;;5.26;100.00;100943.20;105780;1253;72541;-76
2023/10/17 01:22:48;;;;;;;21.20;11.50;;;;;;;5.24;100.00;100946.04;105784;1254;62650;-76
2023/10/17 01:25:25;;;;;;;18.20;11.00;;;;;;;5.22;100.00;100948.71;105793;1253;71297;-76
2023/10/17 01:27:52;;;;;;;17.00;11.20;;;;;;;5.20;100.00;100946.70;105743;1253;61000;-76
2023/10/17 01:30:20;;;;;;;17.80;11.50;;;;;;;5.17;100.00;100945.90;105824;1253;60547;-76
2023/10/17 01:32:51;;;;;;;15.90;11.10;;;;;;;5.16;100.00;100947.35;105992;1253;73908;-75
2023/10/17 01:35:20;;;;;;;17.20;12.40;;;;;;;5.14;100.00;100950.70;105728;1255;63913;-76
2023/10/17 01:37:47;;;;;;;19.90;12.80;;;;;;;5.11;100.00;100944.73;105814;1257;72683;-76
2023/10/17 01:40:25;;;;;;;16.60;11.60;;;;;;;5.08;100.00;100947.23;105798;1257;60439;-76
2023/10/17 01:42:54;;;;;;;19.00;12.10;;;;;;;5.06;100.00;100941.60;105877;1252;60457;-76
2023/10/17 01:45:23;;;;;;;19.20;12.20;;;;;;;5.04;100.00;100948.79;105735;1253;72622;-79
2023/10/17 01:47:53;;;;;;;17.60;12.20;;;;;;;5.02;100.00;100951.79;105783;1253;62514;-77
2023/10/17 01:50:20;;;;;;;18.20;12.00;;;;;;;4.99;100.00;100959.46;105580;1253;72738;-77
2023/10/17 01:52:48;;;;;;;17.90;12.10;;;;;;;4.97;100.00;100960.94;105695;1256;60425;-77
2023/10/17 01:55:16;;;;;;;20.60;13.10;;;;;;;4.94;100.00;100964.65;105755;1253;60449;-75
2023/10/17 01:57:46;;;;;;;25.60;14.90;;;;;;;4.91;100.00;100967.17;105737;1253;73685;-77
2023/10/17 02:00:23;;;;;;;24.60;14.50;;;;;;;4.90;100.00;100969.82;105794;1256;62310;-78
2023/10/17 02:02:54;;;;;;;22.40;14.50;;;;;;;4.88;100.00;100976.30;105871;1252;72662;-76
2023/10/17 02:05:22;;;;;;;21.90;13.80;;;;;;;4.85;100.00;100982.09;105752;1257;61205;-77
2023/10/17 02:07:50;;;;;;;23.60;13.50;;;;;;;4.82;100.00;100984.08;105767;1252;60547;-79
2023/10/17 02:10:28;;;;;;;21.90;12.90;;;;;;;4.81;100.00;100987.60;105693;1253;73858;-76
2023/10/17 02:12:56;;;;;;;18.80;11.90;;;;;;;4.79;100.00;100995.08;105701;1253;63852;-74
2023/10/17 02:15:23;;;;;;;13.20;10.60;;;;;;;4.78;100.00;101000.84;105662;1253;72699;-76
2023/10/17 02:17:51;;;;;;;20.40;11.80;;;;;;;4.76;100.00;101003.15;105680;1257;61073;-77
2023/10/17 02:20:21;;;;;;;17.60;11.90;;;;;;;4.75;100.00;101002.13;105790;1253;60445;-75
2023/10/17 02:22:51;;;;;;;17.90;11.50;;;;;;;4.73;100.00;101000.96;105752;1254;73816;-76
2023/10/17 02:25:21;;;;;;;22.10;13.00;;;;;;;4.72;100.00;101004.66;105720;1257;63685;-75
2023/10/17 02:27:49;;;;;;;15.70;11.00;;;;;;;4.70;100.00;101008.68;105787;1253;72566;-75
2023/10/17 02:30:17;;;;;;;17.30;12.30;;;;;;;4.68;100.00;101008.92;105744;1253;60443;-75
2023/10/17 02:32:56;;;;;;;23.30;13.00;;;;;;;4.66;100.00;101006.40;105945;1253;60344;-77
2023/10/17 02:35:36;;;;;;;20.10;12.00;;;;;;;4.64;100.00;101006.11;105836;1254;73950;-76
2023/10/17 02:38:05;;;;;;;16.80;12.40;;;;;;;4.61;100.00;101009.49;105695;1253;64063;-78
2023/10/17 02:40:34;;;;;;;16.60;13.00;;;;;;;4.60;100.00;101014.38;105740;1253;72704;-77
2023/10/17 02:43:01;;;;;;;18.00;12.60;;;;;;;4.59;100.00;101016.65;105752;1257;61214;-76
2023/10/17 02:45:28;;;;;;;18.60;12.20;;;;;;;4.58;100.00;101019.42;105719;1253;60464;-76
2023/10/17 02:47:57;;;;;;;16.80;12.20;;;;;;;4.57;100.00;101016.67;105661;1254;72827;-75
2023/10/17 02:52:54;;;;;;;18.90;12.80;;;;;;;4.55;100.00;101015.20;105659;1253;72665;-75
2023/10/17 02:55:23;;;;;;;17.60;13.90;;;;;;;4.54;100.00;101017.30;105627;1256;60969;-75
2023/10/17 02:57:52;;;;;;;15.20;12.00;;;;;;;4.53;100.00;101019.73;105776;1252;60457;-76
2023/10/17 03:00:23;;;;;;;20.00;11.70;;;;;;;4.52;100.00;101018.55;105908;1253;73847;-75
2023/10/17 03:02:55;;;;;;;19.00;13.70;;;;;;;4.51;100.00;101017.04;105757;1257;63860;-75
2023/10/17 03:05:24;;;;;;;29.60;14.50;;;;;;;4.48;100.00;101018.50;105910;1253;73374;-77
2023/10/17 03:07:52;;;;;;;24.30;12.10;;;;;;;4.47;100.00;101025.61;105853;1256;61149;-77
2023/10/17 03:10:37;;;;;;;22.70;12.80;;;;;;;4.46;100.00;101027.58;105618;1253;60444;-77
2023/10/17 03:15:48;;;;;;;19.10;10.90;;;;;;;4.42;100.00;101036.33;105629;1256;62305;-77
2023/10/17 03:18:17;;;;;;;17.20;11.50;;;;;;;4.40;100.00;101031.53;105669;1253;72467;-77
2023/10/17 03:20:50;;;;;;;18.80;13.50;;;;;;;4.38;100.00;101037.83;105689;1257;61087;-76
2023/10/17 03:23:18;;;;;;;19.50;14.70;;;;;;;4.35;100.00;101040.14;105630;1253;60880;-74
2023/10/17 03:25:48;;;;;;;20.40;12.20;;;;;;;4.34;100.00;101038.10;105750;1257;73765;-74
2023/10/17 03:28:15;;;;;;;17.70;11.80;;;;;;;4.32;100.00;101043.36;105708;1254;62509;-74
2023/10/17 03:31:42;;;;;;;21.60;12.20;;;;;;;4.33;100.00;101039.86;102690;1294;600181;-75
2023/10/17 03:34:12;;;;;;;22.80;12.60;;;;;;;4.29;100.00;101038.23;104935;1270;59560;-76
2023/10/17 03:36:41;;;;;;;14.10;12.50;;;;;;;4.28;100.00;101039.83;104909;1271;59404;-75
2023/10/17 03:39:20;;;;;;;20.80;12.90;;;;;;;4.27;100.00;101041.08;104837;1265;71972;-74
2023/10/17 03:41:48;;;;;;;18.20;11.40;;;;;;;4.24;100.00;101045.84;104816;1266;62413;-74
2023/10/17 03:44:22;;;;;;;13.60;10.50;;;;;;;4.23;100.00;101042.56;104723;1269;256931;-75
2023/10/17 03:46:49;;;;;;;15.30;10.50;;;;;;;4.20;100.00;101037.79;104893;1270;59614;-74
2023/10/17 03:49:18;;;;;;;14.10;10.70;;;;;;;4.19;100.00;101042.85;105148;1268;59244;-73
2023/10/17 03:51:51;;;;;;;15.70;11.00;;;;;;;4.17;100.00;101043.06;104999;1263;72336;-75
2023/10/17 03:54:22;;;;;;;17.30;11.40;;;;;;;4.15;100.00;101047.80;104946;1264;62497;-76
2023/10/17 03:56:56;;;;;;;13.40;10.80;;;;;;;4.13;100.00;101054.23;105082;1269;71598;-75
2023/10/17 03:59:39;;;;;;;14.70;9.50;;;;;;;4.12;100.00;101057.90;105035;1268;60191;-77
2023/10/17 04:02:18;;;;;;;13.40;9.90;;;;;;;4.10;100.00;101068.34;105518;1260;60311;-76
2023/10/17 04:04:49;;;;;;;13.00;10.70;;;;;;;4.08;100.00;101075.46;105490;1258;73097;-76
2023/10/17 04:07:19;;;;;;;14.50;11.00;;;;;;;4.07;100.00;101072.39;105468;1263;62570;-79
2023/10/17 04:12:39;;;;;;;12.70;10.20;;;;;;;4.05;100.00;101076.08;109581;1253;61434;-75
2023/10/17 04:15:09;;;;;;;14.90;11.10;;;;;;;4.05;100.00;101079.88;109618;1253;60078;-75
2023/10/17 04:17:37;;;;;;;13.70;9.80;;;;;;;4.06;100.00;101085.56;109620;1253;72658;-74
2023/10/17 04:20:16;;;;;;;12.40;10.80;;;;;;;4.06;100.00;101088.68;109669;1251;62639;-74
2023/10/17 04:22:43;;;;;;;11.00;9.20;;;;;;;4.07;100.00;101087.27;109613;1251;73240;-74
2023/10/17 04:25:34;;;;;;;13.40;9.20;;;;;;;4.09;100.00;101091.04;109611;1255;59645;-73
2023/10/17 04:28:01;;;;;;;15.10;9.80;;;;;;;4.11;100.00;101093.21;109688;1251;60288;-74
2023/10/17 04:30:29;;;;;;;14.00;9.20;;;;;;;4.13;100.00;101097.31;109608;1255;72003;-75
2023/10/17 04:33:08;;;;;;;10.20;8.90;;;;;;;4.16;100.00;101106.95;109666;1251;62255;-76
2023/10/17 04:35:40;;;;;;;11.80;8.40;;;;;;;4.18;100.00;101111.73;109654;1251;71250;-73
2023/10/17 04:39:10;;;;;;;12.50;9.20;;;;;;;4.20;100.00;101119.64;109614;1253;59634;-74
2023/10/17 04:41:13;;;;;;;11.30;8.40;;;;;;;4.24;100.00;101128.03;109566;1251;58795;-74
2023/10/17 04:46:25;;;;;;;10.80;8.60;;;;;;;4.31;100.00;101132.01;109661;1251;62790;-75
2023/10/17 04:48:55;;;;;;;11.40;8.00;;;;;;;4.34;100.00;101138.84;109615;1251;72624;-76
2023/10/17 04:51:26;;;;;;;12.40;9.60;;;;;;;4.38;100.00;101139.63;109631;1256;60987;-75
2023/10/17 04:54:03;;;;;;;12.80;8.20;;;;;;;4.42;100.00;101141.59;109635;1251;58835;-73
2023/10/17 04:56:52;;;;;;;14.20;9.70;;;;;;;4.46;100.00;101139.75;109649;1251;71789;-73
2023/10/17 06:17:23;;;;;;;17.20;12.50;;;;;;;11.73;100.00;101264.92;109634;1254;59194;-77
2023/10/17 06:19:51;;;;;;;18.40;11.90;;;;;;;11.39;100.00;101266.57;109616;1251;72588;-77
2023/10/17 06:26:02;;;;;;;15.60;11.60;;;;;;;10.87;100.00;101269.99;109610;1251;74637;-76
2023/10/17 06:30:27;;;;;;;16.70;11.30;;;;;;;10.28;100.00;101269.38;109618;1251;58798;-75
2023/10/17 06:35:52;;;;;;;17.90;10.80;;;;;;;9.87;100.00;101270.08;109491;1251;62307;-75
2023/10/17 06:38:27;;;;;;;19.30;11.40;;;;;;;9.73;100.00;101266.52;109655;1251;72360;-73
2023/10/17 06:41:12;;;;;;;12.90;9.40;;;;;;;9.66;100.00;101272.98;109600;1253;61761;-75
2023/10/17 06:43:46;;;;;;;13.40;10.30;;;;;;;9.61;100.00;101276.52;109637;1251;60250;-74
2023/10/17 06:46:14;;;;;;;13.60;9.60;;;;;;;9.54;100.00;101278.05;109640;1251;72057;-75
2023/10/17 06:48:49;;;;;;;12.00;9.00;;;;;;;9.47;100.00;101275.55;109634;1251;63675;-76
2023/10/17 06:53:48;;;;;;;13.20;8.70;;;;;;;9.37;100.00;101277.25;109631;1254;61697;-75
2023/10/17 06:56:17;;;;;;;11.80;9.00;;;;;;;9.33;100.00;101282.27;109638;1251;58739;-76
2023/10/17 06:58:44;;;;;;;11.10;8.00;;;;;;;9.29;100.00;101283.14;109615;1251;73138;-75
2023/10/17 07:01:19;;;;;;;12.40;9.20;;;;;;;9.26;100.00;101284.67;109657;1251;62618;-74
2023/10/17 07:03:48;;;;;;;9.70;8.40;;;;;;;9.22;100.00;101283.99;109653;1254;71039;-75
2023/10/17 07:06:16;;;;;;;11.30;8.40;;;;;;;9.20;100.00;101282.52;109647;1251;61718;-75
2023/10/17 07:08:50;;;;;;;18.30;13.50;;;;;;;9.19;100.00;101284.32;109613;1251;60027;-75
2023/10/17 07:13:50;;;;;;;12.60;8.40;;;;;;;9.17;100.00;101289.66;109514;1251;63569;-75
2023/10/17 07:16:27;;;;;;;12.70;8.60;;;;;;;9.16;100.00;101295.59;109597;1254;72783;-75
2023/10/17 07:18:57;;;;;;;9.50;7.90;;;;;;;9.11;100.00;101298.94;109603;1251;61003;-75
2023/10/17 07:21:25;;;;;;;12.10;8.20;;;;;;;9.10;100.00;101299.69;109595;1251;60238;-75
2023/10/17 07:24:00;;;;;;;17.90;13.80;;;;;;;9.12;100.00;101299.09;109607;1251;71826;-77
2023/10/17 07:28:56;;;;;;;12.00;8.80;;;;;;;9.28;100.00;101293.86;109580;1254;71411;-74
2023/10/17 07:31:24;;;;;;;12.40;8.50;;;;;;;9.39;100.00;101292.67;109527;1253;60801;-76
2023/10/17 07:34:38;;;;;;;10.90;8.70;;;;;;;9.51;100.00;101296.70;109530;1253;59204;-75
2023/10/17 07:36:43;;;;;;;11.60;8.40;;;;;;;9.60;100.00;101298.73;109402;1254;71763;-77
2023/10/17 07:39:24;;;;;;;9.80;8.00;;;;;;;9.62;100.00;101298.98;109521;1253;62441;-75
2023/10/17 07:41:55;;;;;;;11.30;7.80;;;;;;;9.63;100.00;101305.25;109498;1253;71405;-74
2023/10/17 07:44:25;;;;;;;14.10;8.00;;;;;;;9.64;100.00;101305.17;109496;1253;61866;-75
2023/10/17 07:49:35;;;;;;;8.90;8.00;;;;;;;9.68;100.00;101306.72;109542;1253;71851;-76
2023/10/17 07:52:15;;;;;;;11.70;8.50;;;;;;;9.70;100.00;101312.04;109503;1252;62529;-75
2023/10/17 07:54:55;;;;;;;9.00;8.00;;;;;;;9.74;100.00;101313.46;109512;1253;71047;-76
2023/10/17 07:57:26;;;;;;;9.00;8.10;;;;;;;9.72;100.00;101313.86;109468;1253;61782;-77
2023/10/17 07:59:59;;;;;;;9.70;8.40;;;;;;;9.72;100.00;101317.56;109494;1253;58797;-75
2023/10/17 08:02:30;;;;;;;14.00;8.90;;;;;;;9.71;100.00;101317.08;109515;1253;73943;-75
2023/10/17 08:05:16;;;;;;;13.70;10.10;;;;;;;9.72;100.00;101315.82;109647;1253;63761;-75
2023/10/17 08:07:49;;;;;;;20.50;10.50;;;;;;;9.70;100.00;101319.95;109501;1253;72621;-75
2023/10/17 08:10:35;;;;;;;17.10;11.20;;;;;;;9.67;100.00;101322.67;109253;1253;61876;-75
2023/10/17 08:13:03;;;;;;;19.20;11.60;;;;;;;9.68;100.00;101321.41;109508;1252;60187;-75
2023/10/17 08:18:14;;;;;;;8.70;7.50;;;;;;;10.12;100.00;101327.10;109518;1252;62418;-74
2023/10/17 08:20:54;;;;;;;15.10;10.10;;;;;;;10.47;100.00;101330.20;109515;1253;72722;-75
2023/10/17 08:23:23;;;;;;;14.30;9.90;;;;;;;10.74;100.00;101331.47;109404;1253;61822;-73
2023/10/17 08:34:41;;;;;;;16.60;10.80;;;;;;;11.01;100.00;101346.27;104934;1268;60703;-77
2023/10/17 08:42:12;;;;;;;18.20;11.40;;;;;;;11.06;100.00;101347.58;105071;1268;64019;-77
2023/10/17 08:44:42;;;;;;;15.80;11.90;;;;;;;11.07;100.00;101347.55;104939;1268;242934;-76
2023/10/17 08:47:18;;;;;;;16.60;11.60;;;;;;;11.07;100.00;101343.16;105149;1268;62010;-76
2023/10/17 08:49:49;;;;;;;10.70;9.50;;;;;;;11.11;100.00;101345.40;105059;1262;61458;-75
2023/10/17 08:52:23;;;;;;;10.00;6.70;;;;;;;11.10;100.00;101347.57;105117;1263;72350;-77
2023/10/17 08:54:51;;;;;;;10.30;7.90;;;;;;;11.05;100.00;101348.14;105018;1263;63191;-76
2023/10/17 08:57:19;;;;;;;9.30;8.30;;;;;;;11.03;100.00;101350.72;105242;1262;73792;-78
2023/10/17 09:04:51;;;;;;;18.10;13.00;;;;;;;10.93;100.00;101350.51;105619;1256;72445;-76
2023/10/17 09:07:41;;;;;;;11.60;10.10;;;;;;;10.83;100.00;101354.31;105461;1256;64779;-79
2023/10/17 09:10:36;;;;;;;7.60;5.90;;;;;;;10.76;100.00;101352.53;105515;1262;72808;-77
2023/10/17 09:15:59;;;;;;;6.50;5.90;;;;;;;10.94;100.00;101351.67;105505;1257;59624;-75
2023/10/17 09:18:32;;;;;;;6.90;5.40;;;;;;;11.02;100.00;101350.77;105498;1256;72169;-77
2023/10/17 09:21:03;;;;;;;6.30;5.10;;;;;;;11.01;100.00;101347.65;105628;1259;64980;-77
2023/10/17 09:23:30;;;;;;;7.20;6.50;;;;;;;10.95;100.00;101350.02;105475;1256;72618;-76
2023/10/17 09:26:07;;;;;;;6.90;6.10;;;;;;;10.92;100.00;101350.52;105571;1259;62100;-75
2023/10/17 09:28:35;;;;;;;8.10;5.60;;;;;;;10.94;100.00;101352.73;105594;1256;60417;-77
2023/10/17 09:31:07;;;;;;;8.00;6.80;;;;;;;10.92;100.00;101352.10;105460;1259;72796;-75
2023/10/17 09:33:43;;;;;;;11.30;8.30;;;;;;;10.92;100.00;101348.98;105702;1257;62708;-77
2023/10/17 09:36:11;;;;;;;9.00;8.00;;;;;;;10.89;100.00;101346.48;105659;1256;73895;-76
2023/10/17 09:38:43;;;;;;;12.50;8.90;;;;;;;10.88;100.00;101345.98;105621;1259;63829;-78
2023/10/17 09:41:19;;;;;;;11.40;9.10;;;;;;;10.91;100.00;101342.38;105675;1257;61579;-75
2023/10/17 09:43:49;;;;;;;9.10;8.30;;;;;;;10.93;100.00;101345.59;105500;1259;71374;-78
2023/10/17 09:46:36;;;;;;;16.60;9.50;;;;;;;10.94;100.00;101338.54;105487;1261;62684;-76
2023/10/17 09:49:03;;;;;;;12.40;8.30;;;;;;;11.15;100.00;101336.81;105336;1260;72712;-77
2023/10/17 09:51:35;;;;;;;9.00;7.40;;;;;;;11.54;100.00;101331.08;105319;1260;61852;-76
2023/10/17 09:54:04;;;;;;;11.90;7.60;;;;;;;12.07;100.00;101327.40;105486;1257;60044;-78
2023/10/17 09:56:40;;;;;;;10.20;6.40;;;;;;;12.45;100.00;101331.44;105599;1257;72128;-77
2023/10/17 09:59:16;;;;;;;8.60;7.60;;;;;;;12.74;100.00;101334.35;105587;1257;62880;-75
2023/10/17 10:01:49;;;;;;;7.70;6.90;;;;;;;13.08;100.00;101332.73;105528;1259;72418;-78
2023/10/17 10:04:18;;;;;;;8.40;7.50;;;;;;;13.27;100.00;101328.10;105406;1257;60441;-78
2023/10/17 10:06:46;;;;;;;9.90;8.10;;;;;;;13.35;99.88;101326.74;105394;1262;60095;-77
2023/10/17 10:09:17;;;;;;;9.80;7.80;;;;;;;13.36;99.35;101327.79;105450;1262;72770;-77
2023/10/17 10:11:51;;;;;;;9.30;7.10;;;;;;;13.32;98.29;101328.70;105541;1259;63936;-75
2023/10/17 10:14:27;;;;;;;12.10;6.80;;;;;;;13.24;98.94;101331.21;105462;1259;73034;-77
2023/10/17 10:16:57;;;;;;;8.20;6.30;;;;;;;13.14;99.11;101327.47;105525;1259;62569;-77
2023/10/17 10:19:27;;;;;;;9.80;5.80;;;;;;;13.06;99.89;101323.85;105529;1259;59550;-77
2023/10/17 10:22:00;;;;;;;15.70;6.60;;;;;;;13.01;100.00;101325.42;105450;1256;74226;-77
2023/10/17 10:24:28;;;;;;;9.50;6.40;;;;;;;12.90;99.93;101326.98;105677;1259;64011;-77
2023/10/17 10:27:14;;;;;;;6.30;5.40;;;;;;;12.73;99.96;101323.02;105584;1257;72644;-79
2023/10/17 10:29:42;;;;;;;8.80;6.40;;;;;;;12.59;100.00;101327.83;105573;1259;60367;-76
2023/10/17 10:32:33;;;;;;;11.80;6.90;;;;;;;12.47;100.00;101318.36;105520;1259;59597;-77
2023/10/17 10:35:05;;;;;;;9.20;7.70;;;;;;;12.35;100.00;101319.58;105492;1258;71907;-76
2023/10/17 10:37:56;;;;;;;8.20;7.50;;;;;;;12.37;100.00;101321.23;105580;1257;62493;-76
2023/10/17 10:40:30;;;;;;;10.20;5.90;;;;;;;12.37;100.00;101323.11;105510;1259;72731;-75
2023/10/17 10:43:01;;;;;;;8.40;5.20;;;;;;;12.32;100.00;101320.95;105508;1257;59702;-77
2023/10/17 10:45:35;;;;;;;9.70;7.20;;;;;;;12.26;100.00;101320.95;105518;1259;60895;-79
2023/10/17 10:48:04;;;;;;;10.90;6.70;;;;;;;12.15;100.00;101320.65;105669;1257;73071;-76
2023/10/17 10:50:33;;;;;;;12.80;7.30;;;;;;;12.06;100.00;101313.83;105519;1259;62558;-79
2023/10/17 10:53:01;;;;;;;11.00;8.40;;;;;;;12.00;100.00;101317.45;105736;1259;72833;-79
2023/10/17 10:55:30;;;;;;;7.60;5.50;;;;;;;11.97;100.00;101314.48;106004;1254;61583;-77
2023/10/17 10:57:59;;;;;;;5.30;4.70;;;;;;;11.93;100.00;101313.30;106011;1265;60320;-80
2023/10/17 11:00:26;;;;;;;4.00;3.60;;;;;;;11.92;100.00;101303.14;105898;1251;73018;-76
2023/10/17 11:02:53;;;;;;;9.40;4.50;;;;;;;12.01;100.00;101300.74;105907;1256;63814;-76
2023/10/17 11:05:20;;;;;;;5.90;5.20;;;;;;;12.17;100.00;101300.38;105750;1256;72711;-76
2023/10/17 11:07:47;;;;;;;9.60;5.50;;;;;;;12.30;100.00;101303.35;105837;1255;60372;-77
2023/10/17 11:10:14;;;;;;;7.80;5.80;;;;;;;12.32;100.00;101302.36;106024;1254;59718;-77
2023/10/17 11:12:52;;;;;;;9.70;7.30;;;;;;;12.30;100.00;101304.23;105832;1251;74003;-75
2023/10/17 11:15:21;;;;;;;7.80;7.00;;;;;;;12.24;100.00;101302.10;105849;1256;64025;-77
2023/10/17 11:17:51;;;;;;;12.30;8.30;;;;;;;12.20;100.00;101301.98;105817;1251;73014;-77
2023/10/17 11:20:18;;;;;;;11.80;10.30;;;;;;;12.15;100.00;101304.70;105838;1256;60826;-77
2023/10/17 11:22:46;;;;;;;13.70;10.50;;;;;;;12.13;100.00;101301.88;105749;1256;60012;-76
2023/10/17 11:25:26;;;;;;;11.20;9.10;;;;;;;12.09;100.00;101301.02;105858;1252;73223;-77
2023/10/17 11:28:00;;;;;;;18.60;10.60;;;;;;;12.03;100.00;101299.61;105790;1255;63166;-76
2023/10/17 11:30:36;;;;;;;16.50;11.50;;;;;;;11.95;100.00;101297.75;105803;1256;73816;-77
2023/10/17 11:33:10;;;;;;;14.50;10.50;;;;;;;11.91;100.00;101296.76;105908;1265;60316;-74
2023/10/17 11:35:51;;;;;;;11.50;8.60;;;;;;;11.83;100.00;101296.80;105952;1258;60054;-77
2023/10/17 11:38:37;;;;;;;10.60;8.40;;;;;;;11.73;100.00;101295.92;105924;1256;73117;-78
2023/10/17 11:41:15;;;;;;;12.20;8.10;;;;;;;11.64;100.00;101293.83;106013;1255;64000;-76
2023/10/17 11:43:53;;;;;;;12.30;9.20;;;;;;;11.54;100.00;101285.92;106025;1257;73010;-77
2023/10/17 11:46:33;;;;;;;10.90;8.40;;;;;;;11.48;100.00;101291.88;105926;1256;60590;-76
2023/10/17 11:49:26;;;;;;;12.50;8.90;;;;;;;11.44;100.00;101293.09;105927;1256;61548;-77
2023/10/17 11:52:10;;;;;;;12.70;10.40;;;;;;;11.43;100.00;101293.48;105844;1256;73042;-78
2023/10/17 11:54:54;;;;;;;11.80;8.80;;;;;;;11.40;100.00;101294.20;105878;1255;63856;-76
2023/10/17 11:57:25;;;;;;;14.30;8.80;;;;;;;11.29;100.00;101292.83;105851;1256;70643;-74
2023/10/17 12:02:48;;;;;;;12.90;7.80;;;;;;;11.14;100.00;101299.58;105815;1251;59659;-77
2023/10/17 12:05:19;;;;;;;7.50;5.50;;;;;;;11.10;100.00;101301.16;105795;1256;74515;-77
2023/10/17 12:07:56;;;;;;;5.70;5.10;;;;;;;11.07;100.00;101304.48;105907;1256;64936;-79
2023/10/17 12:10:24;;;;;;;6.70;5.00;;;;;;;11.06;100.00;101304.73;105793;1264;72701;-77
2023/10/17 12:13:04;;;;;;;8.60;5.20;;;;;;;11.08;100.00;101306.86;105751;1256;60548;-77
2023/10/17 12:15:31;;;;;;;9.30;6.80;;;;;;;11.14;100.00;101305.33;105866;1251;60594;-76
2023/10/17 12:17:59;;;;;;;8.40;5.30;;;;;;;11.21;100.00;101305.17;105878;1260;72914;-79
2023/10/17 12:20:27;;;;;;;8.60;5.90;;;;;;;11.27;100.00;101303.83;106002;1256;63748;-76
2023/10/17 12:22:56;;;;;;;11.80;5.90;;;;;;;11.33;100.00;101301.03;105955;1257;70551;-77
2023/10/17 12:25:24;;;;;;;8.40;5.30;;;;;;;11.41;100.00;101306.75;105850;1257;60082;-76
2023/10/17 12:27:56;;;;;;;4.40;3.50;;;;;;;11.49;99.42;101308.25;105966;1257;60682;-75
2023/10/17 12:30:27;;;;;;;7.20;3.60;;;;;;;11.53;98.15;101309.27;105828;1256;73112;-76
2023/10/17 12:32:57;;;;;;;5.80;4.10;;;;;;;11.56;99.53;101311.90;105839;1256;64012;-77
2023/10/17 12:35:27;;;;;;;7.80;3.70;;;;;;;11.64;100.00;101306.77;105849;1256;72832;-76
2023/10/17 12:37:59;;;;;;;4.30;2.50;;;;;;;11.72;100.00;101308.61;105990;1252;60364;-76
2023/10/17 12:40:26;;;;;;;2.90;2.20;;;;;;;11.77;98.58;101303.29;105841;1256;59545;-76
2023/10/17 12:42:56;;;;;;;2.70;2.50;;;;;;;11.77;99.75;101304.45;105874;1256;73002;-77
2023/10/17 12:45:24;;;;;;;3.60;2.00;;;;;;;11.78;99.90;101305.14;105855;1264;63758;-77
2023/10/17 12:47:51;;;;;;;2.50;2.10;;;;;;;11.76;98.65;101305.25;105805;1255;72712;-77
2023/10/17 12:50:18;;;;;;;4.10;2.60;;;;;;;11.75;98.72;101303.86;105825;1257;60541;-77
2023/10/17 12:52:45;;;;;;;5.60;1.90;;;;;;;11.76;99.31;101306.83;105792;1251;60537;-77
2023/10/17 12:55:12;;;;;;;3.50;3.20;;;;;;;11.76;99.41;101306.63;105933;1261;73625;-75
2023/10/17 12:57:39;;;;;;;6.00;2.00;;;;;;;11.77;97.34;101310.07;105951;1256;63904;-76
2023/10/17 13:00:11;;;;;;;3.70;2.20;;;;;;;11.76;93.37;101308.73;105770;1257;72915;-78
2023/10/17 13:02:38;;;;;;;5.00;3.40;;;;;;;11.72;89.02;101313.16;105799;1256;60545;-76
2023/10/17 13:05:09;;;;;;;7.80;3.70;;;;;;;11.64;87.06;101315.51;105810;1257;61231;-78
2023/10/17 13:07:40;;;;;;;5.40;2.80;;;;;;;11.55;87.58;101318.63;105856;1251;72533;-77
2023/10/17 13:10:08;;;;;;;5.90;3.30;;;;;;;11.47;86.22;101320.62;105874;1250;63701;-78
2023/10/17 13:12:41;;;;;;;5.20;3.20;;;;;;;11.41;86.32;101316.70;105819;1256;72685;-78
2023/10/17 13:15:09;;;;;;;6.70;3.70;;;;;;;11.35;88.97;101320.01;105776;1256;60482;-79
2023/10/17 13:17:36;;;;;;;10.90;4.50;;;;;;;11.29;91.32;101320.49;105919;1252;60420;-77
2023/10/17 13:20:07;;;;;;;11.30;7.40;;;;;;;11.23;90.14;101323.46;105871;1254;72688;-76
2023/10/17 13:22:40;;;;;;;8.50;4.00;;;;;;;11.15;84.16;101325.59;105956;1257;62609;-76
2023/10/17 13:25:07;;;;;;;5.90;2.90;;;;;;;11.08;80.51;101325.25;105933;1254;71561;-78
2023/10/17 13:27:34;;;;;;;3.30;2.80;;;;;;;11.00;77.75;101328.44;105944;1254;60573;-79
2023/10/17 13:30:03;;;;;;;4.10;3.30;;;;;;;10.93;77.47;101327.39;105901;1251;60512;-78
2023/10/17 13:32:31;;;;;;;6.00;3.80;;;;;;;10.85;78.92;101331.80;105908;1257;74850;-78
2023/10/17 13:34:58;;;;;;;4.70;3.30;;;;;;;10.76;80.58;101325.77;105973;1254;64007;-80
2023/10/17 13:37:27;;;;;;;5.90;4.50;;;;;;;10.70;85.04;101327.48;105933;1256;72665;-76
2023/10/17 13:39:55;;;;;;;5.40;4.40;;;;;;;10.64;86.99;101330.26;105861;1254;60488;-77
2023/10/17 13:42:22;;;;;;;7.20;4.10;;;;;;;10.57;89.15;101332.31;105979;1254;60364;-77
2023/10/17 13:44:49;;;;;;;5.80;3.30;;;;;;;10.51;92.43;101336.27;105885;1251;74032;-78
2023/10/17 13:47:16;;;;;;;4.70;3.30;;;;;;;10.45;93.09;101332.05;105950;1256;62490;-78
2023/10/17 13:49:43;;;;;;;5.00;3.50;;;;;;;10.38;94.17;101329.23;105962;1254;72642;-78
2023/10/17 13:52:10;;;;;;;4.70;3.70;;;;;;;10.31;94.96;101333.72;105936;1254;60398;-79